createdAt,value
2022-11-28T00:01:18.422Z,30.86
2022-11-28T00:03:45.303Z,30.88
2022-11-28T00:06:12.197Z,30.89
2022-11-28T00:08:39.178Z,30.85
2022-11-28T00:11:07.114Z,30.95
2022-11-28T00:13:34.084Z,30.90
2022-11-28T00:16:02.746Z,30.88
2022-11-28T00:18:31.547Z,30.93
2022-11-28T00:21:00.023Z,30.92
2022-11-28T00:23:26.903Z,30.95
2022-11-28T00:25:57.428Z,30.87
2022-11-28T00:28:24.591Z,30.97
2022-11-28T00:30:51.374Z,31.04
2022-11-28T00:33:18.287Z,30.96
2022-11-28T00:35:46.606Z,30.94
2022-11-28T00:38:13.557Z,30.92
2022-11-28T00:40:40.403Z,31.09
2022-11-28T00:43:07.256Z,30.88
2022-11-28T00:45:34.099Z,30.94
2022-11-28T00:48:01.020Z,30.96
2022-11-28T00:50:27.803Z,30.92
2022-11-28T00:52:56.023Z,31.06
2022-11-28T00:55:22.895Z,31.04
2022-11-28T00:57:49.699Z,31.12
2022-11-28T01:00:17.040Z,31.12
2022-11-28T01:02:43.846Z,31.06
2022-11-28T01:05:10.741Z,31.04
2022-11-28T01:07:42.229Z,31.05
2022-11-28T01:10:12.235Z,30.93
2022-11-28T01:12:39.200Z,31.00
2022-11-28T01:15:09.243Z,31.31
2022-11-28T01:17:36.363Z,31.20
2022-11-28T01:20:05.528Z,31.07
2022-11-28T01:22:32.389Z,30.97
2022-11-28T01:24:59.292Z,31.28
2022-11-28T01:27:27.424Z,31.17
2022-11-28T01:29:54.208Z,31.23
2022-11-28T01:32:21.027Z,31.16
2022-11-28T01:34:47.832Z,31.18
2022-11-28T01:37:14.641Z,31.10
2022-11-28T01:39:41.472Z,31.34
2022-11-28T01:42:11.836Z,31.23
2022-11-28T01:45:13.048Z,31.13
2022-11-28T01:47:40.175Z,31.15
2022-11-28T01:50:09.022Z,31.17
2022-11-28T01:52:38.551Z,31.25
2022-11-28T01:55:07.147Z,31.36
2022-11-28T01:57:34.524Z,31.13
2022-11-28T02:00:06.613Z,31.19
2022-11-28T02:02:45.230Z,31.33
2022-11-28T02:05:12.318Z,31.35
2022-11-28T02:07:39.497Z,31.25
2022-11-28T02:10:11.852Z,31.31
2022-11-28T02:12:54.426Z,31.28
2022-11-28T02:15:49.757Z,31.16
2022-11-28T02:18:29.404Z,31.24
2022-11-28T02:21:24.998Z,31.41
2022-11-28T02:24:30.369Z,31.38
2022-11-28T02:27:23.155Z,31.31
2022-11-28T02:30:14.664Z,31.37
2022-11-28T02:32:55.612Z,31.54
2022-11-28T02:35:30.699Z,31.51
2022-11-28T02:38:04.745Z,31.35
2022-11-28T02:40:38.583Z,31.29
2022-11-28T02:45:43.734Z,31.26
2022-11-28T02:48:18.374Z,31.37
2022-11-28T02:50:52.939Z,31.54
2022-11-28T02:53:24.481Z,31.25
2022-11-28T02:55:53.360Z,31.30
2022-11-28T02:58:20.232Z,31.41
2022-11-28T03:00:49.312Z,31.50
2022-11-28T03:03:31.328Z,31.58
2022-11-28T03:06:01.956Z,31.42
2022-11-28T03:08:43.513Z,31.46
2022-11-28T03:11:15.499Z,31.49
2022-11-28T03:13:53.076Z,31.53
2022-11-28T03:16:27.793Z,31.55
2022-11-28T03:19:06.583Z,31.63
2022-11-28T03:21:39.258Z,31.40
2022-11-28T03:24:12.319Z,31.63
2022-11-28T03:26:47.234Z,31.61
2022-11-28T03:29:18.926Z,31.51
2022-11-28T03:31:52.225Z,31.64
2022-11-28T03:34:24.661Z,31.38
2022-11-28T03:36:56.114Z,31.70
2022-11-28T03:39:25.238Z,31.63
2022-11-28T03:41:57.120Z,31.74
2022-11-28T03:44:28.141Z,31.96
2022-11-28T03:46:58.213Z,31.67
2022-11-28T03:49:32.151Z,31.75
2022-11-28T03:52:03.262Z,31.65
2022-11-28T03:54:35.565Z,31.64
2022-11-28T03:57:11.043Z,31.79
2022-11-28T03:59:42.727Z,31.93
2022-11-28T04:02:20.653Z,31.71
2022-11-28T04:04:55.683Z,31.82
2022-11-28T04:07:28.915Z,31.73
2022-11-28T04:10:02.375Z,31.59
2022-11-28T04:12:37.623Z,31.86
2022-11-28T04:15:14.740Z,31.84
2022-11-28T04:17:49.401Z,31.79
2022-11-28T04:20:26.295Z,31.75
2022-11-28T04:22:58.910Z,31.65
2022-11-28T04:25:26.251Z,31.49
2022-11-28T04:27:57.664Z,31.81
2022-11-28T04:30:25.533Z,31.58
2022-11-28T04:32:57.734Z,31.87
2022-11-28T04:35:30.703Z,31.81
2022-11-28T04:37:59.410Z,31.57
2022-11-28T04:40:29.647Z,31.97
2022-11-28T04:43:01.652Z,31.92
2022-11-28T04:45:33.926Z,31.81
2022-11-28T04:48:01.338Z,31.80
2022-11-28T04:50:38.201Z,31.80
2022-11-28T04:53:12.468Z,31.89
2022-11-28T04:55:45.148Z,31.72
2022-11-28T04:58:18.309Z,31.90
2022-11-28T05:00:47.488Z,31.74
2022-11-28T05:03:14.667Z,31.99
2022-11-28T05:05:45.544Z,31.92
2022-11-28T05:08:12.747Z,31.87
2022-11-28T05:10:39.646Z,31.94
2022-11-28T05:13:06.503Z,31.87
2022-11-28T05:15:33.579Z,31.86
2022-11-28T05:18:00.406Z,31.84
2022-11-28T05:20:27.987Z,31.82
2022-11-28T05:22:56.189Z,31.66
2022-11-28T05:25:23.060Z,31.75
2022-11-28T05:27:49.912Z,31.83
2022-11-28T05:30:16.995Z,32.04
2022-11-28T05:32:43.808Z,31.96
2022-11-28T05:35:10.631Z,32.07
2022-11-28T05:37:38.054Z,32.17
2022-11-28T05:40:07.701Z,32.02
2022-11-28T05:42:36.245Z,32.19
2022-11-28T05:45:03.682Z,32.09
2022-11-28T05:47:31.794Z,32.20
2022-11-28T05:52:25.619Z,32.40
2022-11-28T05:54:52.405Z,32.39
2022-11-28T05:57:20.585Z,32.41
2022-11-28T05:59:47.389Z,32.38
2022-11-28T06:02:14.417Z,32.37
2022-11-28T06:04:41.922Z,32.27
2022-11-28T06:07:08.971Z,32.14
2022-11-28T06:09:35.980Z,32.28
2022-11-28T06:12:03.157Z,32.06
2022-11-28T06:14:31.323Z,32.04
2022-11-28T06:16:58.201Z,32.33
2022-11-28T06:19:25.191Z,31.93
2022-11-28T06:21:52.457Z,32.00
2022-11-28T06:24:19.289Z,31.94
2022-11-28T06:26:46.585Z,31.88
2022-11-28T06:29:13.402Z,31.93
2022-11-28T06:31:41.667Z,31.81
2022-11-28T06:34:10.305Z,31.89
2022-11-28T06:36:37.217Z,31.95
2022-11-28T06:39:04.102Z,31.67
2022-11-28T06:41:30.880Z,31.67
2022-11-28T06:43:57.767Z,31.87
2022-11-28T06:46:24.707Z,31.67
2022-11-28T06:48:53.649Z,31.62
2022-11-28T06:51:21.146Z,31.54
2022-11-28T06:53:48.263Z,31.72
2022-11-28T06:56:16.859Z,31.61
2022-11-28T06:58:44.435Z,31.67
2022-11-28T07:01:13.079Z,31.59
2022-11-28T07:03:40.566Z,31.68
2022-11-28T07:06:09.514Z,31.63
2022-11-28T07:08:37.103Z,31.42
2022-11-28T07:11:09.501Z,31.66
2022-11-28T07:13:36.612Z,31.82
2022-11-28T07:16:03.447Z,31.76
2022-11-28T07:18:30.283Z,31.71
2022-11-28T07:20:57.089Z,31.78
2022-11-28T07:23:25.335Z,31.75
2022-11-28T07:25:58.060Z,31.65
2022-11-28T07:28:24.834Z,31.67
2022-11-28T07:30:59.390Z,31.59
2022-11-28T07:33:27.045Z,31.61
2022-11-28T07:35:53.838Z,31.84
2022-11-28T07:38:20.614Z,31.79
2022-11-28T07:40:48.819Z,31.75
2022-11-28T07:43:15.622Z,31.58
2022-11-28T07:45:59.987Z,31.57
2022-11-28T07:48:27.565Z,31.63
2022-11-28T07:50:54.391Z,31.53
2022-11-28T07:53:21.321Z,31.72
2022-11-28T07:55:49.458Z,31.68
2022-11-28T07:58:16.353Z,31.42
2022-11-28T08:00:43.245Z,31.46
2022-11-28T08:03:10.184Z,31.38
2022-11-28T08:05:36.991Z,31.53
2022-11-28T08:08:04.229Z,31.31
2022-11-28T08:10:31.058Z,31.55
2022-11-28T08:12:59.207Z,31.38
2022-11-28T08:15:31.074Z,31.54
2022-11-28T08:17:57.995Z,31.42
2022-11-28T08:20:24.910Z,31.25
2022-11-28T08:22:51.786Z,31.39
2022-11-28T08:25:18.595Z,31.35
2022-11-28T08:27:45.688Z,31.36
2022-11-28T08:30:14.286Z,31.31
2022-11-28T08:32:41.126Z,31.38
2022-11-28T08:35:08.077Z,31.50
2022-11-28T08:37:34.953Z,31.32
2022-11-28T08:40:02.085Z,31.01
2022-11-28T08:42:29.034Z,31.21
2022-11-28T08:44:55.801Z,31.10
2022-11-28T08:47:23.983Z,31.56
2022-11-28T08:49:50.763Z,31.24
2022-11-28T08:52:17.859Z,31.13
2022-11-28T08:54:44.858Z,31.13
2022-11-28T08:57:11.822Z,30.97
2022-11-28T08:59:38.705Z,30.95
2022-11-28T09:02:05.559Z,31.42
2022-11-28T09:04:33.790Z,31.31
2022-11-28T09:07:00.590Z,31.01
2022-11-28T09:09:32.627Z,31.33
2022-11-28T09:11:59.750Z,30.85
2022-11-28T09:14:26.768Z,31.09
2022-11-28T09:16:53.771Z,31.21
2022-11-28T09:19:20.615Z,31.32
2022-11-28T09:21:53.176Z,31.04
2022-11-28T09:24:23.035Z,31.17
2022-11-28T09:26:49.771Z,31.11
2022-11-28T09:29:16.548Z,31.05
2022-11-28T09:31:47.396Z,31.05
2022-11-28T09:34:14.648Z,31.09
2022-11-28T09:36:41.949Z,31.14
2022-11-28T09:39:10.191Z,31.22
2022-11-28T09:41:58.153Z,31.21
2022-11-28T09:44:37.305Z,31.32
2022-11-28T09:47:08.930Z,31.16
2022-11-28T09:49:41.533Z,31.39
2022-11-28T09:52:21.631Z,31.18
2022-11-28T09:55:00.002Z,31.31
2022-11-28T09:57:33.752Z,31.35
2022-11-28T10:00:01.325Z,31.52
2022-11-28T10:02:46.331Z,31.34
2022-11-28T10:05:20.084Z,30.97
2022-11-28T10:08:01.951Z,31.42
2022-11-28T10:10:38.139Z,31.16
2022-11-28T10:13:16.279Z,31.27
2022-11-28T10:15:51.585Z,31.26
2022-11-28T10:18:32.243Z,31.29
2022-11-28T10:21:03.411Z,31.61
2022-11-28T10:23:35.577Z,31.45
2022-11-28T10:26:07.884Z,31.49
2022-11-28T10:28:37.414Z,31.23
2022-11-28T10:31:10.330Z,31.14
2022-11-28T10:33:42.398Z,31.08
2022-11-28T10:36:17.096Z,31.39
2022-11-28T10:38:44.058Z,31.39
2022-11-28T10:41:17.216Z,31.27
2022-11-28T10:43:49.460Z,31.29
2022-11-28T10:46:48.629Z,31.23
2022-11-28T10:49:33.791Z,31.59
2022-11-28T10:52:09.112Z,31.37
2022-11-28T10:55:03.363Z,31.50
2022-11-28T10:57:42.495Z,31.33
2022-11-28T11:00:12.509Z,31.48
2022-11-28T11:02:44.880Z,31.47
2022-11-28T11:05:14.469Z,31.29
2022-11-28T11:07:46.370Z,31.50
2022-11-28T11:10:16.036Z,31.65
2022-11-28T11:12:44.692Z,31.30
2022-11-28T11:15:17.093Z,31.44
2022-11-28T11:17:44.059Z,31.66
2022-11-28T11:20:28.332Z,31.42
2022-11-28T11:22:56.866Z,31.48
2022-11-28T11:25:26.080Z,31.41
2022-11-28T11:27:57.954Z,31.34
2022-11-28T11:30:27.733Z,31.47
2022-11-28T11:32:56.343Z,31.29
2022-11-28T11:35:26.409Z,31.43
2022-11-28T11:37:54.909Z,31.47
2022-11-28T11:40:25.831Z,31.61
2022-11-28T11:42:56.170Z,31.54
2022-11-28T11:45:32.278Z,31.43
2022-11-28T11:47:59.214Z,31.36
2022-11-28T11:50:27.950Z,31.57
2022-11-28T11:53:04.396Z,31.85
2022-11-28T11:55:36.213Z,31.63
2022-11-28T11:58:06.268Z,31.83
2022-11-28T12:00:37.640Z,31.83
2022-11-28T12:03:06.831Z,31.59
2022-11-28T12:06:12.218Z,31.70
2022-11-28T12:08:36.839Z,31.59
2022-11-28T12:11:15.445Z,31.67
2022-11-28T12:13:43.868Z,32.09
2022-11-28T12:16:25.454Z,31.97
2022-11-28T12:19:00.153Z,31.82
2022-11-28T12:21:37.411Z,32.07
2022-11-28T12:24:10.487Z,32.08
2022-11-28T12:26:44.370Z,31.75
2022-11-28T12:29:28.397Z,31.90
2022-11-28T12:32:09.501Z,31.93
2022-11-28T12:34:50.781Z,31.63
2022-11-28T12:38:02.757Z,31.87
2022-11-28T12:40:30.903Z,31.86
2022-11-28T12:43:14.301Z,32.06
2022-11-28T12:45:51.655Z,31.86
2022-11-28T12:48:36.040Z,31.93
2022-11-28T12:51:13.279Z,32.19
2022-11-28T12:54:05.221Z,32.53
2022-11-28T12:56:44.349Z,33.48
2022-11-28T12:59:22.409Z,33.54
2022-11-28T13:02:01.392Z,33.31
2022-11-28T13:04:49.043Z,33.03
2022-11-28T13:07:28.164Z,32.62
2022-11-28T13:10:03.332Z,32.42
2022-11-28T13:12:46.283Z,32.73
2022-11-28T13:15:20.883Z,32.43
2022-11-28T13:17:55.505Z,32.45
2022-11-28T13:20:29.437Z,31.59
2022-11-28T13:23:08.799Z,31.38
2022-11-28T13:25:43.865Z,31.78
2022-11-28T13:28:18.268Z,31.16
2022-11-28T13:30:50.238Z,31.30
2022-11-28T13:33:38.286Z,30.84
2022-11-28T13:38:34.890Z,30.46
2022-11-28T13:39:13.001Z,30.13
2022-11-28T13:44:35.780Z,30.33
2022-11-28T13:47:13.608Z,30.27
2022-11-28T13:49:41.831Z,30.81
2022-11-28T13:52:32.746Z,31.05
2022-11-28T13:54:59.567Z,30.47
2022-11-28T13:57:30.111Z,30.60
2022-11-28T14:00:02.488Z,30.63
2022-11-28T14:02:44.458Z,31.08
2022-11-28T14:05:27.292Z,30.79
2022-11-28T14:07:56.019Z,31.28
2022-11-28T14:10:39.575Z,31.12
2022-11-28T14:13:33.681Z,31.42
2022-11-28T14:16:12.741Z,31.40
2022-11-28T14:19:03.663Z,31.12
2022-11-28T14:21:46.548Z,31.61
2022-11-28T14:24:19.577Z,31.69
2022-11-28T14:26:46.958Z,31.32
2022-11-28T14:29:22.979Z,31.61
2022-11-28T14:32:21.745Z,31.64
2022-11-28T14:34:46.242Z,31.42
2022-11-28T14:37:57.508Z,31.45
2022-11-28T14:41:04.342Z,31.39
2022-11-28T14:43:34.990Z,31.53
2022-11-28T14:46:25.667Z,31.79
2022-11-28T14:49:21.379Z,31.58
2022-11-28T14:52:44.422Z,31.51
2022-11-28T14:55:20.727Z,31.63
2022-11-28T14:57:58.713Z,31.54
2022-11-28T15:00:30.450Z,31.89
2022-11-28T15:03:17.463Z,31.95
2022-11-28T15:05:46.650Z,31.50
2022-11-28T15:08:45.528Z,31.74
2022-11-28T15:11:22.881Z,32.07
2022-11-28T15:14:07.545Z,32.09
2022-11-28T15:16:42.773Z,31.55
2022-11-28T15:19:16.338Z,32.19
2022-11-28T15:21:45.378Z,32.10
2022-11-28T15:24:24.051Z,32.33
2022-11-28T15:26:57.034Z,31.72
2022-11-28T15:29:26.148Z,31.81
2022-11-28T15:31:57.027Z,31.79
2022-11-28T15:34:26.066Z,32.20
2022-11-28T15:36:54.465Z,32.07
2022-11-28T15:39:29.271Z,32.42
2022-11-28T15:41:58.776Z,31.99
2022-11-28T15:44:26.545Z,32.16
2022-11-28T15:46:55.637Z,32.34
2022-11-28T15:49:24.438Z,32.36
2022-11-28T15:51:53.334Z,31.95
2022-11-28T15:54:35.507Z,32.18
2022-11-28T15:57:02.994Z,32.28
2022-11-28T15:59:30.326Z,32.08
2022-11-28T16:02:01.305Z,32.14
2022-11-28T16:04:29.776Z,32.18
2022-11-28T16:06:59.052Z,31.92
2022-11-28T16:09:29.660Z,31.99
2022-11-28T16:11:56.774Z,31.90
2022-11-28T16:14:28.078Z,32.22
2022-11-28T16:16:55.181Z,32.17
2022-11-28T16:19:26.504Z,32.15
2022-11-28T16:21:55.047Z,32.18
2022-11-28T16:24:26.772Z,32.19
2022-11-28T16:26:55.934Z,32.14
2022-11-28T16:29:24.452Z,32.21
2022-11-28T16:31:51.408Z,32.46
2022-11-28T16:34:46.162Z,32.38
2022-11-28T16:37:13.767Z,32.06
2022-11-28T16:39:40.922Z,32.17
2022-11-28T16:42:15.292Z,31.99
2022-11-28T16:44:43.063Z,32.23
2022-11-28T16:47:25.501Z,32.40
2022-11-28T16:50:16.618Z,32.43
2022-11-28T16:52:46.685Z,32.40
2022-11-28T16:55:53.092Z,32.28
2022-11-28T16:58:24.894Z,32.25
2022-11-28T17:01:01.233Z,32.09
2022-11-28T17:03:49.397Z,32.41
2022-11-28T17:06:29.923Z,32.32
2022-11-28T17:08:56.976Z,32.42
2022-11-28T17:11:28.337Z,32.48
2022-11-28T17:13:57.718Z,32.67
2022-11-28T17:16:26.932Z,32.78
2022-11-28T17:18:53.831Z,32.50
2022-11-28T17:21:32.253Z,32.49
2022-11-28T17:23:59.710Z,32.56
2022-11-28T17:26:26.527Z,32.25
2022-11-28T17:28:53.870Z,32.64
2022-11-28T17:31:21.664Z,32.56
2022-11-28T17:33:48.572Z,32.42
2022-11-28T17:36:15.533Z,32.39
2022-11-28T17:38:43.850Z,32.77
2022-11-28T17:41:13.526Z,32.59
2022-11-28T17:43:40.990Z,32.58
2022-11-28T17:46:08.826Z,32.53
2022-11-28T17:48:35.817Z,32.47
2022-11-28T17:51:03.738Z,32.31
2022-11-28T17:53:30.958Z,32.37
2022-11-28T17:55:59.916Z,32.50
2022-11-28T17:58:28.773Z,32.47
2022-11-28T18:01:00.595Z,32.14
2022-11-28T18:03:28.259Z,32.38
2022-11-28T18:05:55.151Z,32.55
2022-11-28T18:08:22.529Z,32.64
2022-11-28T18:10:49.562Z,32.73
2022-11-28T18:13:18.767Z,32.63
2022-11-28T18:15:47.923Z,32.42
2022-11-28T18:18:14.956Z,32.51
2022-11-28T18:20:42.247Z,32.42
2022-11-28T18:23:11.006Z,32.31
2022-11-28T18:25:42.743Z,32.39
2022-11-28T18:28:15.767Z,32.43
2022-11-28T18:30:47.407Z,32.67
2022-11-28T18:33:14.878Z,32.34
2022-11-28T18:35:41.848Z,32.32
2022-11-28T18:38:11.905Z,32.43
2022-11-28T18:40:39.205Z,32.70
2022-11-28T18:43:06.538Z,32.46
2022-11-28T18:45:33.739Z,32.07
2022-11-28T18:48:02.043Z,32.41
2022-11-28T18:50:29.692Z,32.34
2022-11-28T18:52:56.636Z,32.48
2022-11-28T18:55:23.653Z,32.23
2022-11-28T18:57:50.506Z,32.42
2022-11-28T19:00:18.318Z,32.16
2022-11-28T19:02:45.204Z,32.49
2022-11-28T19:05:13.843Z,32.57
2022-11-28T19:07:41.735Z,32.62
2022-11-28T19:10:09.593Z,32.29
2022-11-28T19:12:37.255Z,32.54
2022-11-28T19:15:04.782Z,32.46
2022-11-28T19:17:33.865Z,32.73
2022-11-28T19:20:00.747Z,32.76
2022-11-28T19:22:28.968Z,32.33
2022-11-28T19:24:56.359Z,32.95
2022-11-28T19:27:23.478Z,32.56
2022-11-28T19:29:50.390Z,32.48
2022-11-28T19:32:18.061Z,32.54
2022-11-28T19:34:44.951Z,32.57
2022-11-28T19:37:15.165Z,32.57
2022-11-28T19:39:43.462Z,32.58
2022-11-28T19:42:11.118Z,32.79
2022-11-28T19:44:38.842Z,32.48
2022-11-28T19:47:06.826Z,32.75
2022-11-28T19:49:34.022Z,32.69
2022-11-28T19:52:03.210Z,32.61
2022-11-28T19:54:30.124Z,32.63
2022-11-28T19:56:58.551Z,32.69
2022-11-28T19:59:25.461Z,32.68
2022-11-28T20:01:53.812Z,32.46
2022-11-28T20:04:22.513Z,32.45
2022-11-28T20:06:49.363Z,32.79
2022-11-28T20:09:16.364Z,32.41
2022-11-28T20:11:44.074Z,32.57
2022-11-28T20:14:14.227Z,32.51
2022-11-28T20:16:41.332Z,32.43
2022-11-28T20:19:10.608Z,32.74
2022-11-28T20:21:37.706Z,32.62
2022-11-28T20:24:07.480Z,32.69
2022-11-28T20:26:37.734Z,32.60
2022-11-28T20:29:06.494Z,32.90
2022-11-28T20:31:37.487Z,32.45
2022-11-28T20:34:06.190Z,32.68
2022-11-28T20:36:33.508Z,32.54
2022-11-28T20:39:01.221Z,32.78
2022-11-28T20:41:28.598Z,32.45
2022-11-28T20:43:56.282Z,32.37
2022-11-28T20:46:27.111Z,32.19
2022-11-28T20:48:57.399Z,32.30
2022-11-28T20:51:26.346Z,32.45
2022-11-28T20:53:53.836Z,32.15
2022-11-28T20:56:22.689Z,32.48
2022-11-28T20:58:50.170Z,32.40
2022-11-28T21:01:19.921Z,32.34
2022-11-28T21:03:47.154Z,32.12
2022-11-28T21:06:15.544Z,32.19
2022-11-28T21:08:42.419Z,32.27
2022-11-28T21:11:11.334Z,32.30
2022-11-28T21:13:38.410Z,32.42
2022-11-28T21:16:06.920Z,32.31
2022-11-28T21:18:35.329Z,32.32
2022-11-28T21:21:07.771Z,32.26
2022-11-28T21:23:36.348Z,32.33
2022-11-28T21:26:05.420Z,32.32
2022-11-28T21:28:32.281Z,32.24
2022-11-28T21:30:59.097Z,32.01
2022-11-28T21:33:25.975Z,32.23
2022-11-28T21:35:52.754Z,32.52
2022-11-28T21:38:19.538Z,32.24
2022-11-28T21:40:53.583Z,32.08
2022-11-28T21:43:21.012Z,32.30
2022-11-28T21:45:47.893Z,32.10
2022-11-28T21:48:16.695Z,32.27
2022-11-28T21:50:46.344Z,32.32
2022-11-28T21:53:13.567Z,32.43
2022-11-28T21:55:40.401Z,32.16
2022-11-28T21:58:09.446Z,32.07
2022-11-28T22:00:53.125Z,32.18
2022-11-28T22:03:24.816Z,31.93
2022-11-28T22:05:54.714Z,32.33
2022-11-28T22:08:21.552Z,32.05
2022-11-28T22:10:48.393Z,32.10
2022-11-28T22:13:16.642Z,32.17
2022-11-28T22:15:43.650Z,31.89
2022-11-28T22:18:11.276Z,31.89
2022-11-28T22:20:43.522Z,32.19
2022-11-28T22:23:12.134Z,31.89
2022-11-28T22:25:41.937Z,31.98
2022-11-28T22:28:08.821Z,32.20
2022-11-28T22:30:38.498Z,32.08
2022-11-28T22:33:05.768Z,31.97
2022-11-28T22:35:33.009Z,31.87
2022-11-28T22:38:00.215Z,32.11
2022-11-28T22:40:27.555Z,32.00
2022-11-28T22:42:54.714Z,32.12
2022-11-28T22:45:21.597Z,32.23
2022-11-28T22:47:49.955Z,32.05
2022-11-28T22:50:17.147Z,32.07
2022-11-28T22:52:44.613Z,32.08
2022-11-28T22:55:11.609Z,32.16
2022-11-28T22:57:38.494Z,32.19
2022-11-28T23:00:08.767Z,32.17
2022-11-28T23:02:36.096Z,31.98
2022-11-28T23:05:05.142Z,32.01
2022-11-28T23:07:33.084Z,32.23
2022-11-28T23:10:00.213Z,32.25
2022-11-28T23:12:27.418Z,32.14
2022-11-28T23:14:54.390Z,32.08
2022-11-28T23:17:21.318Z,32.06
2022-11-28T23:19:48.327Z,32.02
2022-11-28T23:22:16.562Z,32.11
2022-11-28T23:24:43.748Z,32.07
2022-11-28T23:27:10.720Z,32.24
2022-11-28T23:29:39.244Z,32.00
2022-11-28T23:32:06.440Z,32.05
2022-11-28T23:34:33.279Z,32.15
2022-11-28T23:37:01.256Z,32.03
2022-11-28T23:39:29.982Z,32.04
2022-11-28T23:42:04.246Z,31.89
2022-11-28T23:44:31.079Z,32.03
2022-11-28T23:46:57.983Z,31.97
2022-11-28T23:49:24.811Z,32.05
2022-11-28T23:51:51.625Z,31.93
2022-11-28T23:54:18.630Z,31.99
2022-11-28T23:56:46.854Z,32.25
2022-11-28T23:59:13.741Z,31.96
